createdAt,value
2023-05-14T00:01:53.699Z,99477.19
2023-05-14T00:04:20.576Z,99471.09
2023-05-14T00:06:47.528Z,99465.00
2023-05-14T00:09:14.351Z,99458.03
2023-05-14T00:11:41.222Z,99462.38
2023-05-14T00:14:08.118Z,99453.69
2023-05-14T00:16:35.146Z,99456.28
2023-05-14T00:19:02.241Z,99455.44
2023-05-14T00:21:29.322Z,99451.94
2023-05-14T00:23:56.169Z,99446.72
2023-05-14T00:26:23.176Z,99446.72
2023-05-14T00:28:50.261Z,99440.63
2023-05-14T00:31:17.193Z,99439.78
2023-05-14T00:33:44.181Z,99440.63
2023-05-14T00:36:11.153Z,99433.69
2023-05-14T00:38:38.013Z,99436.28
2023-05-14T00:41:05.102Z,99435.41
2023-05-14T00:43:33.404Z,99428.47
2023-05-14T00:46:01.014Z,99427.59
2023-05-14T00:48:28.060Z,99425.88
2023-05-14T00:50:55.334Z,99431.94
2023-05-14T00:53:22.430Z,99429.34
2023-05-14T00:55:50.747Z,99420.63
2023-05-14T00:58:19.083Z,99423.25
2023-05-14T01:03:21.498Z,99418.03
2023-05-14T01:06:01.154Z,99414.53
2023-05-14T01:08:54.936Z,99406.72
2023-05-14T01:11:30.809Z,99409.31
2023-05-14T01:14:19.327Z,99413.66
2023-05-14T01:16:46.372Z,99421.47
2023-05-14T01:19:44.026Z,99423.22
2023-05-14T01:22:11.193Z,99426.72
2023-05-14T01:24:38.155Z,99425.84
2023-05-14T01:27:31.919Z,99421.53
2023-05-14T01:30:11.408Z,99423.22
2023-05-14T01:32:41.017Z,99429.34
2023-05-14T01:35:09.816Z,99414.53
2023-05-14T01:37:37.325Z,99405.84
2023-05-14T01:40:05.477Z,99410.22
2023-05-14T01:42:33.111Z,99415.41
2023-05-14T01:45:00.110Z,99418.00
2023-05-14T01:47:27.087Z,99422.34
2023-05-14T01:49:54.004Z,99414.50
2023-05-14T01:52:21.430Z,99419.72
2023-05-14T01:54:48.966Z,99417.13
2023-05-14T01:57:15.904Z,99414.50
2023-05-14T01:59:42.731Z,99405.84
2023-05-14T02:02:09.645Z,99404.09
2023-05-14T02:04:36.625Z,99404.09
2023-05-14T02:07:03.449Z,99404.97
2023-05-14T02:09:30.944Z,99394.53
2023-05-14T02:11:57.788Z,99395.41
2023-05-14T02:14:24.603Z,99390.19
2023-05-14T02:16:51.592Z,99392.78
2023-05-14T02:19:19.006Z,99384.09
2023-05-14T02:21:45.878Z,99380.59
2023-05-14T02:24:12.945Z,99382.34
2023-05-14T02:26:40.184Z,99377.09
2023-05-14T02:29:07.018Z,99382.25
2023-05-14T02:31:34.107Z,99386.59
2023-05-14T02:34:04.929Z,99383.09
2023-05-14T02:36:31.991Z,99390.03
2023-05-14T02:39:00.059Z,99400.44
2023-05-14T02:41:27.660Z,99400.47
2023-05-14T02:43:55.090Z,99397.91
2023-05-14T02:46:22.387Z,99395.28
2023-05-14T02:48:49.672Z,99401.25
2023-05-14T02:51:16.982Z,99396.13
2023-05-14T02:53:43.836Z,99390.06
2023-05-14T02:56:10.699Z,99390.06
2023-05-14T02:58:37.705Z,99395.16
2023-05-14T03:01:04.860Z,99397.84
2023-05-14T03:03:32.243Z,99392.53
2023-05-14T03:06:00.018Z,99386.50
2023-05-14T03:08:27.117Z,99378.66
2023-05-14T03:10:54.092Z,99373.41
2023-05-14T03:13:21.406Z,99384.66
2023-05-14T03:15:48.884Z,99386.38
2023-05-14T03:18:15.941Z,99394.91
2023-05-14T03:20:42.953Z,99394.16
2023-05-14T03:23:09.948Z,99405.50
2023-05-14T03:25:37.174Z,99393.25
2023-05-14T03:28:04.291Z,99400.28
2023-05-14T03:30:31.187Z,99396.88
2023-05-14T03:32:58.661Z,99398.50
2023-05-14T03:35:25.714Z,99393.31
2023-05-14T03:37:53.285Z,99381.97
2023-05-14T03:40:21.450Z,99371.56
2023-05-14T03:42:48.832Z,99361.16
2023-05-14T03:45:15.943Z,99372.34
2023-05-14T03:47:42.872Z,99363.66
2023-05-14T03:50:10.497Z,99354.91
2023-05-14T03:52:37.710Z,99355.72
2023-05-14T03:55:04.851Z,99340.97
2023-05-14T03:57:31.667Z,99347.13
2023-05-14T03:59:58.788Z,99347.91
2023-05-14T04:02:26.205Z,99337.59
2023-05-14T04:04:53.772Z,99339.25
2023-05-14T04:07:20.774Z,99346.19
2023-05-14T04:09:47.596Z,99358.38
2023-05-14T04:12:16.820Z,99351.41
2023-05-14T04:14:43.715Z,99344.50
2023-05-14T04:17:10.698Z,99336.75
2023-05-14T04:19:37.545Z,99344.56
2023-05-14T04:22:04.631Z,99347.19
2023-05-14T04:24:31.479Z,99342.88
2023-05-14T04:26:58.298Z,99342.91
2023-05-14T04:29:25.426Z,99341.22
2023-05-14T04:31:52.398Z,99347.97
2023-05-14T04:34:19.294Z,99343.63
2023-05-14T04:36:46.814Z,99339.31
2023-05-14T04:39:14.340Z,99341.09
2023-05-14T04:41:41.544Z,99351.44
2023-05-14T04:44:09.072Z,99335.78
2023-05-14T04:46:35.929Z,99349.59
2023-05-14T04:49:02.805Z,99343.56
2023-05-14T04:51:29.646Z,99341.81
2023-05-14T04:53:56.494Z,99344.50
2023-05-14T04:56:23.310Z,99354.88
2023-05-14T04:58:50.631Z,99356.38
2023-05-14T05:01:17.556Z,99344.25
2023-05-14T05:03:44.581Z,99347.69
2023-05-14T05:06:11.685Z,99340.03
2023-05-14T05:08:38.992Z,99328.75
2023-05-14T05:11:05.934Z,99338.19
2023-05-14T05:13:32.782Z,99334.69
2023-05-14T05:15:59.708Z,99340.84
2023-05-14T05:18:26.636Z,99349.53
2023-05-14T05:20:53.646Z,99346.13
2023-05-14T05:23:20.707Z,99350.53
2023-05-14T05:25:47.566Z,99339.34
2023-05-14T05:28:15.471Z,99339.22
2023-05-14T05:30:45.142Z,99344.50
2023-05-14T05:33:12.809Z,99351.31
2023-05-14T05:35:39.785Z,99358.34
2023-05-14T05:38:06.631Z,99362.81
2023-05-14T05:40:33.674Z,99347.88
2023-05-14T05:43:00.894Z,99354.81
2023-05-14T05:45:27.838Z,99345.41
2023-05-14T05:47:54.882Z,99348.91
2023-05-14T05:50:22.841Z,99356.75
2023-05-14T05:52:49.978Z,99356.66
2023-05-14T05:55:16.851Z,99356.66
2023-05-14T05:57:43.976Z,99350.63
2023-05-14T06:00:14.443Z,99332.50
2023-05-14T06:02:42.349Z,99335.84
2023-05-14T06:05:10.560Z,99332.47
2023-05-14T06:07:37.666Z,99327.25
2023-05-14T06:10:05.135Z,99326.44
2023-05-14T06:12:32.219Z,99321.22
2023-05-14T06:14:59.172Z,99324.75
2023-05-14T06:17:26.094Z,99322.16
2023-05-14T06:19:53.437Z,99320.31
2023-05-14T06:22:20.527Z,99336.00
2023-05-14T06:24:48.108Z,99335.22
2023-05-14T06:27:15.235Z,99345.63
2023-05-14T06:29:42.067Z,99338.75
2023-05-14T06:32:09.401Z,99340.53
2023-05-14T06:34:36.378Z,99337.97
2023-05-14T06:37:04.330Z,99337.78
2023-05-14T06:39:31.205Z,99338.69
2023-05-14T06:41:58.202Z,99337.06
2023-05-14T06:44:25.192Z,99335.38
2023-05-14T06:46:52.336Z,99338.84
2023-05-14T06:49:19.425Z,99338.84
2023-05-14T06:51:46.578Z,99338.88
2023-05-14T06:54:13.532Z,99327.56
2023-05-14T06:56:40.463Z,99331.91
2023-05-14T06:59:07.432Z,99318.75
2023-05-14T07:01:34.444Z,99325.63
2023-05-14T07:04:01.794Z,99316.13
2023-05-14T07:06:28.930Z,99338.81
2023-05-14T07:08:59.557Z,99344.03
2023-05-14T07:11:26.890Z,99336.03
2023-05-14T07:13:53.880Z,99332.66
2023-05-14T07:16:21.129Z,99322.22
2023-05-14T07:18:55.921Z,99310.06
2023-05-14T07:21:22.900Z,99310.16
2023-05-14T07:23:49.896Z,99302.38
2023-05-14T07:26:17.097Z,99296.28
2023-05-14T07:28:44.231Z,99275.44
2023-05-14T07:31:11.315Z,99278.91
2023-05-14T07:33:38.599Z,99266.75
2023-05-14T07:36:06.172Z,99264.13
2023-05-14T07:38:33.275Z,99271.09
2023-05-14T07:41:00.445Z,99269.38
2023-05-14T07:43:27.370Z,99271.09
2023-05-14T07:45:54.460Z,99265.88
2023-05-14T07:48:21.396Z,99279.78
2023-05-14T07:50:49.925Z,99267.63
2023-05-14T07:53:16.941Z,99273.69
2023-05-14T07:55:45.524Z,99282.34
2023-05-14T07:58:12.543Z,99277.13
2023-05-14T08:00:39.478Z,99282.41
2023-05-14T08:03:17.424Z,99282.41
2023-05-14T08:05:44.412Z,99273.72
2023-05-14T08:08:12.642Z,99276.34
2023-05-14T08:10:39.889Z,99269.38
2023-05-14T08:13:07.028Z,99269.28
2023-05-14T08:15:34.073Z,99258.88
2023-05-14T08:18:04.023Z,99261.41
2023-05-14T08:20:31.529Z,99261.47
2023-05-14T08:22:59.881Z,99244.09
2023-05-14T08:25:26.820Z,99241.41
2023-05-14T08:27:54.410Z,99241.44
2023-05-14T08:30:30.142Z,99234.44
2023-05-14T08:32:58.575Z,99237.09
2023-05-14T08:35:25.680Z,99231.03
2023-05-14T08:37:52.996Z,99209.19
2023-05-14T08:40:20.853Z,99205.63
2023-05-14T08:42:48.912Z,99216.91
2023-05-14T08:45:21.146Z,99222.81
2023-05-14T08:47:52.993Z,99224.59
2023-05-14T08:50:23.068Z,99213.13
2023-05-14T08:52:51.517Z,99205.47
2023-05-14T08:55:19.500Z,99200.97
2023-05-14T08:57:46.618Z,99188.69
2023-05-14T09:00:15.526Z,99189.78
2023-05-14T09:02:45.204Z,99181.91
2023-05-14T09:05:12.685Z,99173.78
2023-05-14T09:07:39.672Z,99178.03
2023-05-14T09:10:09.201Z,99175.06
2023-05-14T09:12:37.972Z,99192.41
2023-05-14T09:15:05.358Z,99184.84
2023-05-14T09:17:33.827Z,99202.09
2023-05-14T09:20:02.348Z,99194.81
2023-05-14T09:22:33.286Z,99208.78
2023-05-14T09:25:12.677Z,99228.31
2023-05-14T09:27:39.886Z,99206.41
2023-05-14T09:30:11.827Z,99193.88
2023-05-14T09:32:40.708Z,99187.53
2023-05-14T09:35:19.109Z,99195.22
2023-05-14T09:37:48.456Z,99194.25
2023-05-14T09:40:16.689Z,99185.66
2023-05-14T09:42:43.979Z,99203.00
2023-05-14T09:45:11.837Z,99176.88
2023-05-14T09:47:40.031Z,99193.03
2023-05-14T09:50:08.415Z,99188.69
2023-05-14T09:52:36.744Z,99203.16
2023-05-14T09:55:04.345Z,99203.94
2023-05-14T09:57:31.358Z,99197.28
2023-05-14T09:59:58.759Z,99188.50
2023-05-14T10:02:30.607Z,99210.72
2023-05-14T10:05:03.229Z,99202.91
2023-05-14T10:07:37.722Z,99186.72
2023-05-14T10:10:08.802Z,99182.25
2023-05-14T10:12:40.594Z,99200.50
2023-05-14T10:15:16.566Z,99189.50
2023-05-14T10:17:49.611Z,99167.19
2023-05-14T10:20:18.671Z,99179.06
2023-05-14T10:22:46.800Z,99188.78
2023-05-14T10:25:14.700Z,99168.63
2023-05-14T10:27:42.689Z,99152.53
2023-05-14T10:30:14.553Z,99156.16
2023-05-14T10:32:42.626Z,99158.00
2023-05-14T10:35:17.749Z,99116.06
2023-05-14T10:37:46.504Z,99116.72
2023-05-14T10:40:14.210Z,99107.34
2023-05-14T10:42:43.982Z,99106.13
2023-05-14T10:45:15.611Z,99114.69
2023-05-14T10:47:44.778Z,99125.25
2023-05-14T10:50:14.774Z,99081.72
2023-05-14T10:52:46.064Z,99090.25
2023-05-14T10:55:15.361Z,99082.94
2023-05-14T10:57:45.341Z,99094.47
2023-05-14T11:00:14.931Z,99088.09
2023-05-14T11:02:44.084Z,99121.88
2023-05-14T11:05:16.202Z,99112.53
2023-05-14T11:07:44.338Z,99120.34
2023-05-14T11:10:14.022Z,99128.53
2023-05-14T11:12:43.469Z,99117.84
2023-05-14T11:15:28.420Z,99106.72
2023-05-14T11:17:55.645Z,99079.38
2023-05-14T11:20:22.975Z,99076.88
2023-05-14T11:22:53.481Z,99081.84
2023-05-14T11:25:21.986Z,99084.41
2023-05-14T11:27:50.772Z,99059.59
2023-05-14T11:30:20.286Z,99079.88
2023-05-14T11:32:49.312Z,99072.56
2023-05-14T11:35:18.159Z,99074.13
2023-05-14T11:37:57.514Z,99071.69
2023-05-14T11:40:24.625Z,99083.72
2023-05-14T11:42:53.658Z,99081.34
2023-05-14T11:45:27.988Z,99080.91
2023-05-14T11:47:55.123Z,99051.31
2023-05-14T11:50:25.052Z,99063.94
2023-05-14T11:52:57.603Z,99100.78
2023-05-14T11:55:24.751Z,99082.34
2023-05-14T11:57:51.902Z,99072.41
2023-05-14T12:00:22.299Z,99074.06
2023-05-14T12:02:50.632Z,99083.06
2023-05-14T12:05:17.856Z,99101.09
2023-05-14T12:07:46.159Z,99085.38
2023-05-14T12:10:13.874Z,99079.78
2023-05-14T12:12:41.057Z,99043.78
2023-05-14T12:15:13.755Z,99091.75
2023-05-14T12:17:41.548Z,99046.09
2023-05-14T12:20:12.599Z,99048.41
2023-05-14T12:22:42.253Z,99056.19
2023-05-14T12:25:17.405Z,99055.84
2023-05-14T12:27:45.851Z,99022.56
2023-05-14T12:30:21.176Z,99037.69
2023-05-14T12:32:53.169Z,99028.09
2023-05-14T12:35:23.033Z,99022.06
2023-05-14T12:37:50.293Z,99017.56
2023-05-14T12:40:18.791Z,99011.47
2023-05-14T12:42:45.924Z,99010.03
2023-05-14T12:45:13.090Z,99012.47
2023-05-14T12:47:40.130Z,98996.06
2023-05-14T12:50:08.753Z,98984.22
2023-05-14T12:52:39.318Z,98978.69
2023-05-14T12:55:09.969Z,98970.94
2023-05-14T12:57:38.880Z,98966.16
2023-05-14T13:00:08.242Z,98963.16
2023-05-14T13:02:43.105Z,98941.72
2023-05-14T13:05:13.854Z,98953.31
2023-05-14T13:07:42.204Z,98986.63
2023-05-14T13:10:09.901Z,99000.97
2023-05-14T13:12:37.104Z,98967.66
2023-05-14T13:15:04.548Z,99007.16
2023-05-14T13:17:31.665Z,98977.50
2023-05-14T13:19:59.039Z,98974.91
2023-05-14T13:22:26.047Z,98992.03
2023-05-14T13:24:53.575Z,98952.72
2023-05-14T13:27:21.564Z,98965.66
2023-05-14T13:29:48.429Z,98945.84
2023-05-14T13:32:15.927Z,98949.25
2023-05-14T13:34:44.161Z,98952.28
2023-05-14T13:37:11.566Z,98941.75
2023-05-14T13:39:39.811Z,98943.31
2023-05-14T13:42:08.190Z,98950.50
2023-05-14T13:44:36.884Z,98968.47
2023-05-14T13:47:04.172Z,98982.25
2023-05-14T13:49:31.636Z,98970.50
2023-05-14T13:51:58.741Z,98993.00
2023-05-14T13:54:25.699Z,98977.16
2023-05-14T13:56:52.541Z,98974.59
2023-05-14T13:59:20.699Z,98962.78
2023-05-14T14:01:50.767Z,98966.13
2023-05-14T14:04:17.973Z,98963.88
2023-05-14T14:06:44.841Z,98950.44
2023-05-14T14:09:14.548Z,98976.16
2023-05-14T14:11:41.683Z,98950.66
2023-05-14T14:14:08.552Z,98950.34
2023-05-14T14:16:36.432Z,98951.91
2023-05-14T14:19:04.045Z,98956.00
2023-05-14T14:21:32.295Z,98950.88
2023-05-14T14:23:59.862Z,98945.94
2023-05-14T14:26:28.497Z,98947.44
2023-05-14T14:28:56.206Z,98951.09
2023-05-14T14:31:23.384Z,98936.88
2023-05-14T14:33:50.252Z,98945.88
2023-05-14T14:36:17.809Z,98950.91
2023-05-14T14:38:44.846Z,98944.81
2023-05-14T14:41:12.523Z,98947.59
2023-05-14T14:43:41.235Z,98973.97
2023-05-14T14:46:10.394Z,98946.09
2023-05-14T14:48:41.798Z,98943.47
2023-05-14T14:51:09.938Z,98958.72
2023-05-14T14:53:37.369Z,98938.59
2023-05-14T14:56:05.032Z,98943.06
2023-05-14T14:58:33.317Z,98961.38
2023-05-14T15:01:01.426Z,98955.31
2023-05-14T15:03:29.100Z,98971.78
2023-05-14T15:05:56.286Z,98966.44
2023-05-14T15:08:26.835Z,98977.00
2023-05-14T15:10:54.904Z,98951.56
2023-05-14T15:13:22.331Z,98966.72
2023-05-14T15:15:51.279Z,98989.31
2023-05-14T15:18:18.692Z,98967.59
2023-05-14T15:20:45.683Z,98963.09
2023-05-14T15:23:14.041Z,98952.81
2023-05-14T15:25:41.254Z,98984.34
2023-05-14T15:28:08.267Z,98960.81
2023-05-14T15:30:36.765Z,98962.56
2023-05-14T15:33:03.820Z,98960.00
2023-05-14T15:35:31.138Z,98940.88
2023-05-14T15:37:58.128Z,98974.81
2023-05-14T15:40:25.541Z,98947.00
2023-05-14T15:42:53.013Z,98952.13
2023-05-14T15:45:19.957Z,98944.41
2023-05-14T15:47:47.115Z,98948.88
2023-05-14T15:50:15.282Z,98941.09
2023-05-14T15:52:42.500Z,98949.88
2023-05-14T15:55:10.163Z,98946.53
2023-05-14T15:57:38.313Z,98936.78
2023-05-14T16:00:13.401Z,98953.44
2023-05-14T16:02:40.991Z,98936.09
2023-05-14T16:05:09.955Z,98958.75
2023-05-14T16:07:39.132Z,98901.38
2023-05-14T16:10:07.213Z,98944.88
2023-05-14T16:12:34.156Z,98955.34
2023-05-14T16:15:01.671Z,98952.78
2023-05-14T16:17:30.703Z,98968.41
2023-05-14T16:19:58.150Z,98973.66
2023-05-14T16:22:25.735Z,98991.94
2023-05-14T16:24:52.573Z,98964.13
2023-05-14T16:27:19.554Z,98965.81
2023-05-14T16:29:48.273Z,98966.69
2023-05-14T16:32:15.230Z,98966.69
2023-05-14T16:34:42.279Z,98972.75
2023-05-14T16:37:11.961Z,98958.91
2023-05-14T16:39:40.330Z,98976.34
2023-05-14T16:42:07.502Z,98953.69
2023-05-14T16:44:35.037Z,98992.03
2023-05-14T16:47:02.431Z,98972.97
2023-05-14T16:49:29.513Z,98959.00
2023-05-14T16:51:56.866Z,98973.84
2023-05-14T16:54:24.205Z,98949.44
2023-05-14T16:56:51.978Z,98948.56
2023-05-14T16:59:19.349Z,98943.31
2023-05-14T17:01:49.635Z,98935.53
2023-05-14T17:04:18.394Z,98939.09
2023-05-14T17:06:47.150Z,98921.56
2023-05-14T17:09:16.582Z,98939.09
2023-05-14T17:11:43.633Z,98918.22
2023-05-14T17:14:10.735Z,98929.59
2023-05-14T17:16:39.579Z,98908.72
2023-05-14T17:19:06.677Z,98918.28
2023-05-14T17:21:34.387Z,98892.25
2023-05-14T17:24:01.476Z,98912.19
2023-05-14T17:26:29.694Z,98907.03
2023-05-14T17:28:57.054Z,98902.53
2023-05-14T17:31:25.345Z,98901.81
2023-05-14T17:33:54.767Z,98894.78
2023-05-14T17:36:22.414Z,98898.19
2023-05-14T17:38:49.534Z,98897.38
2023-05-14T17:41:16.741Z,98895.72
2023-05-14T17:43:44.019Z,98899.19
2023-05-14T17:46:11.008Z,98893.13
2023-05-14T17:48:38.283Z,98898.34
2023-05-14T17:51:05.384Z,98866.13
2023-05-14T17:53:33.466Z,98881.03
2023-05-14T17:56:01.106Z,98910.59
2023-05-14T17:58:28.501Z,98899.31
2023-05-14T18:00:55.569Z,98874.16
2023-05-14T18:03:25.999Z,98869.75
2023-05-14T18:05:53.605Z,98875.88
2023-05-14T18:08:23.537Z,98881.91
2023-05-14T18:10:52.266Z,98905.44
2023-05-14T18:13:19.337Z,98880.19
2023-05-14T18:15:48.847Z,98884.47
2023-05-14T18:18:19.016Z,98918.50
2023-05-14T18:20:48.870Z,98912.41
2023-05-14T18:23:19.459Z,98905.31
2023-05-14T18:25:46.513Z,98918.47
2023-05-14T18:28:13.976Z,98919.22
2023-05-14T18:30:43.803Z,98922.69
2023-05-14T18:33:10.781Z,98913.13
2023-05-14T18:35:38.034Z,98924.44
2023-05-14T18:38:05.529Z,98912.19
2023-05-14T18:40:32.580Z,98914.81
2023-05-14T18:43:00.296Z,98924.31
2023-05-14T18:45:27.830Z,98922.63
2023-05-14T18:47:55.658Z,98935.66
2023-05-14T18:50:22.799Z,98921.81
2023-05-14T18:52:50.791Z,98901.78
2023-05-14T18:55:17.818Z,98910.44
2023-05-14T18:57:44.863Z,98909.56
2023-05-14T19:00:12.551Z,98926.03
2023-05-14T19:02:39.817Z,98921.56
2023-05-14T19:05:08.856Z,98916.53
2023-05-14T19:07:37.877Z,98936.56
2023-05-14T19:10:06.140Z,98933.94
2023-05-14T19:12:33.656Z,98945.31
2023-05-14T19:15:00.676Z,98960.16
2023-05-14T19:17:29.460Z,98936.69
2023-05-14T19:19:56.697Z,98942.84
2023-05-14T19:22:23.754Z,98955.91
2023-05-14T19:24:51.717Z,98951.53
2023-05-14T19:27:22.063Z,98957.63
2023-05-14T19:29:49.690Z,98949.75
2023-05-14T19:32:16.795Z,98932.44
2023-05-14T19:34:44.728Z,98927.25
2023-05-14T19:37:12.328Z,98924.59
2023-05-14T19:39:39.350Z,98919.38
2023-05-14T19:42:07.252Z,98923.72
2023-05-14T19:44:34.938Z,98923.69
2023-05-14T19:47:02.050Z,98931.56
2023-05-14T19:49:29.102Z,98937.69
2023-05-14T19:51:56.168Z,98926.34
2023-05-14T19:54:23.468Z,98905.47
2023-05-14T19:56:50.554Z,98889.00
2023-05-14T19:59:17.471Z,98895.88
2023-05-14T20:01:44.677Z,98891.56
2023-05-14T20:04:11.842Z,98888.94
2023-05-14T20:06:40.540Z,98892.50
2023-05-14T20:09:07.578Z,98880.34
2023-05-14T20:11:34.687Z,98889.97
2023-05-14T20:14:01.937Z,98877.84
2023-05-14T20:16:29.085Z,98873.47
2023-05-14T20:18:56.829Z,98861.25
2023-05-14T20:21:24.954Z,98852.59
2023-05-14T20:23:51.800Z,98855.16
2023-05-14T20:26:18.707Z,98859.53
2023-05-14T20:28:45.701Z,98841.22
2023-05-14T20:31:12.720Z,98835.97
2023-05-14T20:33:39.948Z,98853.38
2023-05-14T20:36:07.097Z,98858.63
2023-05-14T20:38:35.234Z,98869.00
2023-05-14T20:41:02.087Z,98860.31
2023-05-14T20:43:29.071Z,98870.66
2023-05-14T20:45:57.484Z,98867.09
2023-05-14T20:48:24.466Z,98877.47
2023-05-14T20:50:51.291Z,98886.09
2023-05-14T20:53:18.149Z,98889.53
2023-05-14T20:55:45.131Z,98893.00
2023-05-14T20:58:12.037Z,98894.03
2023-05-14T21:00:39.427Z,98895.66
2023-05-14T21:03:06.749Z,98901.84
2023-05-14T21:05:34.980Z,98895.78
2023-05-14T21:08:01.852Z,98910.47
2023-05-14T21:10:28.838Z,98911.41
2023-05-14T21:12:55.717Z,98907.91
2023-05-14T21:15:23.014Z,98892.19
2023-05-14T21:17:50.364Z,98889.66
2023-05-14T21:20:17.410Z,98885.34
2023-05-14T21:22:44.231Z,98886.22
2023-05-14T21:25:11.440Z,98868.81
2023-05-14T21:27:38.392Z,98883.66
2023-05-14T21:30:06.052Z,98892.25
2023-05-14T21:32:33.144Z,98873.16
2023-05-14T21:35:00.009Z,98873.97
2023-05-14T21:37:26.935Z,98866.22
2023-05-14T21:39:53.834Z,98880.94
2023-05-14T21:42:21.282Z,98867.75
2023-05-14T21:44:48.175Z,98855.59
2023-05-14T21:47:16.343Z,98859.00
2023-05-14T21:49:43.565Z,98849.44
2023-05-14T21:52:10.969Z,98848.69
2023-05-14T21:54:37.809Z,98842.53
2023-05-14T21:57:04.859Z,98858.22
2023-05-14T21:59:31.779Z,98854.63
2023-05-14T22:04:28.641Z,98853.00
2023-05-14T22:06:56.064Z,98844.25
2023-05-14T22:09:22.942Z,98836.47
2023-05-14T22:11:49.900Z,98849.53
2023-05-14T22:14:16.732Z,98849.53
2023-05-14T22:16:43.750Z,98853.81
2023-05-14T22:19:10.613Z,98840.91
2023-05-14T22:21:37.462Z,98841.88
2023-05-14T22:24:04.464Z,98831.38
2023-05-14T22:26:31.353Z,98830.50
2023-05-14T22:28:58.280Z,98837.31
2023-05-14T22:31:25.323Z,98850.38
2023-05-14T22:33:52.289Z,98847.72
2023-05-14T22:36:19.138Z,98840.91
2023-05-14T22:38:46.021Z,98846.81
2023-05-14T22:41:12.971Z,98851.19
2023-05-14T22:43:39.965Z,98848.56
2023-05-14T22:46:06.942Z,98841.56
2023-05-14T22:48:33.778Z,98831.22
2023-05-14T22:51:00.660Z,98830.34
2023-05-14T22:53:27.632Z,98819.00
2023-05-14T22:55:54.528Z,98811.25
2023-05-14T22:58:21.460Z,98808.78
2023-05-14T23:00:48.332Z,98820.00
2023-05-14T23:03:15.355Z,98832.97
2023-05-14T23:05:42.317Z,98830.44
2023-05-14T23:08:09.308Z,98820.81
2023-05-14T23:10:36.226Z,98826.88
2023-05-14T23:13:03.984Z,98821.66
2023-05-14T23:15:30.943Z,98807.75
2023-05-14T23:17:57.854Z,98794.72
2023-05-14T23:20:24.753Z,98792.16
2023-05-14T23:22:52.295Z,98783.53
2023-05-14T23:25:19.129Z,98785.41
2023-05-14T23:27:46.057Z,98754.88
2023-05-14T23:30:13.276Z,98753.19
2023-05-14T23:32:40.219Z,98741.72
2023-05-14T23:35:07.429Z,98746.03
2023-05-14T23:37:36.064Z,98726.84
2023-05-14T23:40:03.797Z,98739.13
2023-05-14T23:42:30.880Z,98737.34
2023-05-14T23:44:57.890Z,98728.56
2023-05-14T23:47:24.860Z,98752.84
2023-05-14T23:49:51.806Z,98747.00
2023-05-14T23:52:18.740Z,98746.03
2023-05-14T23:54:45.690Z,98755.53
2023-05-14T23:57:14.617Z,98743.34
2023-05-14T23:59:41.637Z,98748.66
